Ridgefield, Connecticut
Current Conditions -  °F | °C
As of 4:53 AM on Thursday 23 Oct 2014 (Local Time) from KDXR Reporting Station
Overcast Overcast  
Wind Chill: 51°   Ceiling: 2200
Heat Index: 51°   Visibility: 10mi
Dew Point: 44°   Wind: 8mph
Humidity: 77%   Direction: 10°N
Pressure: 29.72"   Gusts: 22mph
Location:  41.28°N, 73.5°W
Report Text: KDXR 230853Z AUTO 01007G19KT 10SM OVC022 11/07 A2972 RMK AO2 RAE28 SLP063 P0003 60004 T01060067 56017
Loading
Personal Weather Stations






























Interactive Weather Map
Tropical Storm Tracking
New forecast layout! Learn more

10-Day Weather Forecast

Advertisements
Track Severe Weather on mobile